KBLM/BLM METAR and TAF weather

Enter ICAO airport designator
Station Type Date Time Source
KBLM METAR 2019/06/16 06:56 UTC NOAA

KBLM 160656Z AUTO 22007KT 10SM BKN120 21/14 A2996 RMK AO2 SLP145 T02110144


Station Type Date Time Source
KBLM Decoded METAR 2019/06/16 06:56 UTC NOAA

Belmar-Farmingdale, NJ, United States (KBLM) 40-11N 074-08W
Jun 16, 2019 - 02:56 AM EDT / 2019.06.16 0656 UTC
Wind: from the SW (220 degrees) at 8 MPH (7 KT):0
Visibility: 10 mile(s):0
Sky conditions: mostly cloudy
Temperature: 70.0 F (21.1 C)
Dew Point: 57.9 F (14.4 C)
Relative Humidity: 65%
Pressure (altimeter): 29.96 in. Hg (1014 hPa)
ob: KBLM 160656Z AUTO 22007KT 10SM BKN120 21/14 A2996 RMK AO2 SLP145 T02110144
cycle: 7

Station Type Date Time Source
KBLM TAF UTC NOAA

Error!

Example: see airport list